Narka, KS (66960)

10:36 AM CDT on May 05, 2015 (GMT -0500)
Hebron Municipal | | Change Station
CLOSE
Current Station
Airport
Location: Hebron,
Elevation: 1467 ft
Nearby Weather Stations

Elev 1467 ft 40.15 °N, 97.59 °W | Updated 21 minutes ago

Clear
Clear
70 °F
Feels Like 70 °F
N
10
Wind Variable Wind from SSE

Today
High -- | Low -- °F
--% Chance of Precip.
Yesterday
High -- | Low -- °F
Precip. -- in
6:25 AM 8:28 PM
Full, 98% visible
Pressure 30.05 in
Visibility 10.0 miles
Clouds Mostly Cloudy 7000 ft
Dew Point 59 °F
Humidity 68%
Rainfall 0.19 in
Snow Depth Not available.
UV 3 out of 12
Pollen 7.10 out of 12
Air Quality Not available.
Flu Activity Sporadic
METAR KHJH 051515Z AUTO 15009KT 10SM BKN070 21/15 A3005 RMK AO2 T02100148

More Conditions Fewer Conditions

Pressure 30.05 in
Visibility 10.0 miles
Clouds Mostly Cloudy 7000 ft
Dew Point 59 °F
Humidity 68%
Rainfall 0.19 in
Snow Depth Not available.
UV 3 out of 12
Pollen 7.10 out of 12
Air Quality Not available.
Flu Activity Sporadic
METAR KHJH 051515Z AUTO 15009KT 10SM BKN070 21/15 A3005 RMK AO2 T02100148

More Conditions Fewer Conditions

10-Day Weather Forecast

Almanac

Astronomy

May. 05, 2015 Rise Set
Actual Time
Civil Twilight
Nautical Twilight
Astronomical Twilight
Moon
Length of Visible Light
Length of Day
Tomorrow will be .
, % of the Moon is Illuminated

Today's Extremes

State Highs State Lows

Community

WunderPhotos

Upload Photos

1,818,918 photos uploaded!

WunderBlogs® & News

Nearby

Air Quality

  Air Quality AQ Index Pollutant
Not available.

Snow Depth

Station Depth Elevation

Earthquake Activity

City Distance Mag. Time & Date
Minimum magnitude displayed is 2.5.

Coastal Water Temperatures

Place Temperature

Stations

Nearby Weather Stations

Station Location Temp. Windchill Dew Point Humidity Wind Precip. Elev Updated Type